sensor_id;sensor_type;location;lat;lon;timestamp;pressure;altitude;pressure_sealevel;temperature;humidity
29815;BME280;16708;50.426;7.664;2023-04-03T00:00:18;998.12;;;1.84;100.00
29815;BME280;16708;50.426;7.664;2023-04-03T00:05:12;998.15;;;1.92;100.00
29815;BME280;16708;50.426;7.664;2023-04-03T00:10:06;998.20;;;1.98;100.00
29815;BME280;16708;50.426;7.664;2023-04-03T00:15:00;998.17;;;2.11;100.00
29815;BME280;16708;50.426;7.664;2023-04-03T00:19:54;998.16;;;2.12;100.00
29815;BME280;16708;50.426;7.664;2023-04-03T00:24:46;998.22;;;2.13;100.00
29815;BME280;16708;50.426;7.664;2023-04-03T00:29:39;998.21;;;2.17;100.00
29815;BME280;16708;50.426;7.664;2023-04-03T00:34:32;998.18;;;2.15;100.00
29815;BME280;16708;50.426;7.664;2023-04-03T00:39:27;998.19;;;2.13;100.00
29815;BME280;16708;50.426;7.664;2023-04-03T00:49:15;998.08;;;2.15;100.00
29815;BME280;16708;50.426;7.664;2023-04-03T00:54:09;998.05;;;2.17;100.00
29815;BME280;16708;50.426;7.664;2023-04-03T00:59:03;998.12;;;2.24;100.00
29815;BME280;16708;50.426;7.664;2023-04-03T01:03:58;998.06;;;2.17;100.00
29815;BME280;16708;50.426;7.664;2023-04-03T01:08:52;998.05;;;2.13;100.00
29815;BME280;16708;50.426;7.664;2023-04-03T01:13:46;997.96;;;2.05;100.00
29815;BME280;16708;50.426;7.664;2023-04-03T01:23:33;997.89;;;2.10;100.00
29815;BME280;16708;50.426;7.664;2023-04-03T01:28:27;997.88;;;2.17;100.00
29815;BME280;16708;50.426;7.664;2023-04-03T01:33:21;997.92;;;2.26;100.00
29815;BME280;16708;50.426;7.664;2023-04-03T01:38:15;997.88;;;2.20;100.00
29815;BME280;16708;50.426;7.664;2023-04-03T01:43:09;997.97;;;2.22;100.00
29815;BME280;16708;50.426;7.664;2023-04-03T01:48:04;997.98;;;2.23;100.00
29815;BME280;16708;50.426;7.664;2023-04-03T01:52:57;997.91;;;2.33;100.00
29815;BME280;16708;50.426;7.664;2023-04-03T01:57:52;997.94;;;2.37;100.00
29815;BME280;16708;50.426;7.664;2023-04-03T02:02:45;997.98;;;2.28;100.00
29815;BME280;16708;50.426;7.664;2023-04-03T02:07:40;997.88;;;2.20;100.00
29815;BME280;16708;50.426;7.664;2023-04-03T02:12:34;997.90;;;2.17;100.00
29815;BME280;16708;50.426;7.664;2023-04-03T02:17:28;997.91;;;2.17;100.00
29815;BME280;16708;50.426;7.664;2023-04-03T02:22:22;997.92;;;2.19;100.00
29815;BME280;16708;50.426;7.664;2023-04-03T02:27:16;997.95;;;2.18;100.00
29815;BME280;16708;50.426;7.664;2023-04-03T02:32:13;997.92;;;2.13;100.00
29815;BME280;16708;50.426;7.664;2023-04-03T02:37:05;997.84;;;2.01;100.00
29815;BME280;16708;50.426;7.664;2023-04-03T02:41:54;997.92;;;1.91;100.00
29815;BME280;16708;50.426;7.664;2023-04-03T02:46:47;997.94;;;1.84;100.00
29815;BME280;16708;50.426;7.664;2023-04-03T02:51:41;997.91;;;1.65;100.00
29815;BME280;16708;50.426;7.664;2023-04-03T02:56:36;997.97;;;1.41;100.00
29815;BME280;16708;50.426;7.664;2023-04-03T03:01:30;997.91;;;1.21;100.00
29815;BME280;16708;50.426;7.664;2023-04-03T03:06:24;997.97;;;1.12;100.00
29815;BME280;16708;50.426;7.664;2023-04-03T03:11:18;998.03;;;1.11;100.00
29815;BME280;16708;50.426;7.664;2023-04-03T03:16:12;997.95;;;0.99;100.00
29815;BME280;16708;50.426;7.664;2023-04-03T03:21:06;998.02;;;0.78;100.00
29815;BME280;16708;50.426;7.664;2023-04-03T03:26:04;998.05;;;0.71;100.00
29815;BME280;16708;50.426;7.664;2023-04-03T03:30:54;998.15;;;0.66;100.00
29815;BME280;16708;50.426;7.664;2023-04-03T03:35:48;998.13;;;0.56;100.00
29815;BME280;16708;50.426;7.664;2023-04-03T03:40:41;998.12;;;0.54;100.00
29815;BME280;16708;50.426;7.664;2023-04-03T03:45:35;998.20;;;0.53;100.00
29815;BME280;16708;50.426;7.664;2023-04-03T03:50:29;998.24;;;0.55;100.00
29815;BME280;16708;50.426;7.664;2023-04-03T03:55:23;998.23;;;0.38;100.00
29815;BME280;16708;50.426;7.664;2023-04-03T04:00:17;998.21;;;0.30;100.00
29815;BME280;16708;50.426;7.664;2023-04-03T04:05:10;998.14;;;0.32;100.00
29815;BME280;16708;50.426;7.664;2023-04-03T04:10:04;998.17;;;0.37;100.00
29815;BME280;16708;50.426;7.664;2023-04-03T04:14:58;998.24;;;0.45;100.00
29815;BME280;16708;50.426;7.664;2023-04-03T04:19:51;998.24;;;0.38;100.00
29815;BME280;16708;50.426;7.664;2023-04-03T04:24:45;998.15;;;0.43;100.00
29815;BME280;16708;50.426;7.664;2023-04-03T04:29:39;998.21;;;0.45;100.00
29815;BME280;16708;50.426;7.664;2023-04-03T04:34:33;998.24;;;0.48;100.00
29815;BME280;16708;50.426;7.664;2023-04-03T04:39:28;998.25;;;0.57;100.00
29815;BME280;16708;50.426;7.664;2023-04-03T04:44:22;998.34;;;0.58;100.00
29815;BME280;16708;50.426;7.664;2023-04-03T04:49:13;998.33;;;0.53;100.00
29815;BME280;16708;50.426;7.664;2023-04-03T04:54:05;998.43;;;0.59;100.00
29815;BME280;16708;50.426;7.664;2023-04-03T04:58:59;998.48;;;0.46;100.00
29815;BME280;16708;50.426;7.664;2023-04-03T05:03:53;998.55;;;0.46;100.00
29815;BME280;16708;50.426;7.664;2023-04-03T05:08:47;998.52;;;0.35;100.00
29815;BME280;16708;50.426;7.664;2023-04-03T05:13:40;998.59;;;0.30;100.00
29815;BME280;16708;50.426;7.664;2023-04-03T05:18:34;998.57;;;0.38;100.00
29815;BME280;16708;50.426;7.664;2023-04-03T05:23:28;998.56;;;0.43;100.00
29815;BME280;16708;50.426;7.664;2023-04-03T05:28:22;998.69;;;0.48;100.00
29815;BME280;16708;50.426;7.664;2023-04-03T05:33:16;998.72;;;0.47;100.00
29815;BME280;16708;50.426;7.664;2023-04-03T05:38:10;998.70;;;0.50;100.00
29815;BME280;16708;50.426;7.664;2023-04-03T05:43:04;998.73;;;0.58;100.00
29815;BME280;16708;50.426;7.664;2023-04-03T05:47:58;998.78;;;0.62;100.00
29815;BME280;16708;50.426;7.664;2023-04-03T05:52:52;998.87;;;0.74;100.00
29815;BME280;16708;50.426;7.664;2023-04-03T05:57:46;998.88;;;0.82;100.00
29815;BME280;16708;50.426;7.664;2023-04-03T06:02:40;998.88;;;0.91;100.00
29815;BME280;16708;50.426;7.664;2023-04-03T06:07:34;998.98;;;1.08;100.00
29815;BME280;16708;50.426;7.664;2023-04-03T06:12:25;998.93;;;1.26;100.00
29815;BME280;16708;50.426;7.664;2023-04-03T06:17:17;999.00;;;1.38;100.00
29815;BME280;16708;50.426;7.664;2023-04-03T06:22:11;999.05;;;1.47;100.00
29815;BME280;16708;50.426;7.664;2023-04-03T06:27:05;999.05;;;1.60;100.00
29815;BME280;16708;50.426;7.664;2023-04-03T06:32:00;999.18;;;1.74;100.00
29815;BME280;16708;50.426;7.664;2023-04-03T06:36:54;999.11;;;1.87;100.00
29815;BME280;16708;50.426;7.664;2023-04-03T06:41:48;999.15;;;2.23;100.00
29815;BME280;16708;50.426;7.664;2023-04-03T06:46:42;999.15;;;2.28;100.00
29815;BME280;16708;50.426;7.664;2023-04-03T06:51:36;999.23;;;2.29;100.00
29815;BME280;16708;50.426;7.664;2023-04-03T06:56:30;999.29;;;2.38;100.00
29815;BME280;16708;50.426;7.664;2023-04-03T07:01:25;999.39;;;2.58;100.00
29815;BME280;16708;50.426;7.664;2023-04-03T07:06:18;999.31;;;2.73;100.00
29815;BME280;16708;50.426;7.664;2023-04-03T07:11:12;999.39;;;2.88;100.00
29815;BME280;16708;50.426;7.664;2023-04-03T07:16:06;999.39;;;2.99;100.00
29815;BME280;16708;50.426;7.664;2023-04-03T07:21:01;999.44;;;3.04;100.00
29815;BME280;16708;50.426;7.664;2023-04-03T07:25:55;999.49;;;3.16;100.00
29815;BME280;16708;50.426;7.664;2023-04-03T07:30:47;999.54;;;3.34;100.00
29815;BME280;16708;50.426;7.664;2023-04-03T07:35:41;999.54;;;3.36;100.00
29815;BME280;16708;50.426;7.664;2023-04-03T07:40:35;999.62;;;3.53;100.00
29815;BME280;16708;50.426;7.664;2023-04-03T07:45:29;999.53;;;3.62;100.00
29815;BME280;16708;50.426;7.664;2023-04-03T07:50:23;999.58;;;3.76;100.00
29815;BME280;16708;50.426;7.664;2023-04-03T07:55:15;999.54;;;3.93;100.00
29815;BME280;16708;50.426;7.664;2023-04-03T08:00:10;999.56;;;4.05;100.00
29815;BME280;16708;50.426;7.664;2023-04-03T08:05:04;999.55;;;4.23;100.00
29815;BME280;16708;50.426;7.664;2023-04-03T08:09:58;999.60;;;4.38;100.00
29815;BME280;16708;50.426;7.664;2023-04-03T08:14:53;999.65;;;4.42;100.00
29815;BME280;16708;50.426;7.664;2023-04-03T08:19:46;999.59;;;4.59;100.00
29815;BME280;16708;50.426;7.664;2023-04-03T08:24:40;999.64;;;4.60;100.00
29815;BME280;16708;50.426;7.664;2023-04-03T08:29:34;999.63;;;4.77;100.00
29815;BME280;16708;50.426;7.664;2023-04-03T08:34:29;999.66;;;5.02;100.00
29815;BME280;16708;50.426;7.664;2023-04-03T08:39:23;999.73;;;5.03;100.00
29815;BME280;16708;50.426;7.664;2023-04-03T08:44:17;999.78;;;5.21;100.00
29815;BME280;16708;50.426;7.664;2023-04-03T08:49:11;999.78;;;5.63;100.00
29815;BME280;16708;50.426;7.664;2023-04-03T08:54:05;999.82;;;5.81;96.79
29815;BME280;16708;50.426;7.664;2023-04-03T08:58:58;999.87;;;6.52;85.93
29815;BME280;16708;50.426;7.664;2023-04-03T09:03:52;999.92;;;5.46;86.58
29815;BME280;16708;50.426;7.664;2023-04-03T09:08:46;999.92;;;5.28;84.89
29815;BME280;16708;50.426;7.664;2023-04-03T09:13:40;999.96;;;5.61;84.66
29815;BME280;16708;50.426;7.664;2023-04-03T09:18:34;999.97;;;5.34;92.43
29815;BME280;16708;50.426;7.664;2023-04-03T09:23:28;999.88;;;5.29;84.68
29815;BME280;16708;50.426;7.664;2023-04-03T09:28:22;1000.01;;;5.49;85.58
29815;BME280;16708;50.426;7.664;2023-04-03T09:38:11;999.88;;;11.52;49.84
29815;BME280;16708;50.426;7.664;2023-04-03T09:43:08;999.90;;;13.16;43.13
29815;BME280;16708;50.426;7.664;2023-04-03T09:57:55;999.83;;;13.00;38.59
29815;BME280;16708;50.426;7.664;2023-04-03T10:07:42;999.73;;;11.90;39.66
29815;BME280;16708;50.426;7.664;2023-04-03T10:12:36;999.71;;;12.11;41.63
29815;BME280;16708;50.426;7.664;2023-04-03T10:17:30;999.68;;;13.88;37.48
29815;BME280;16708;50.426;7.664;2023-04-03T10:22:24;999.74;;;11.09;40.03
29815;BME280;16708;50.426;7.664;2023-04-03T10:32:10;999.69;;;12.56;37.13
29815;BME280;16708;50.426;7.664;2023-04-03T10:37:05;999.67;;;12.34;37.22
29815;BME280;16708;50.426;7.664;2023-04-03T10:51:46;999.68;;;11.98;37.56
29815;BME280;16708;50.426;7.664;2023-04-03T10:56:42;999.74;;;13.35;36.18
29815;BME280;16708;50.426;7.664;2023-04-03T11:01:37;999.59;;;14.73;33.73
29815;BME280;16708;50.426;7.664;2023-04-03T11:06:31;999.66;;;13.70;33.44
29815;BME280;16708;50.426;7.664;2023-04-03T11:11:26;999.57;;;14.18;32.32
29815;BME280;16708;50.426;7.664;2023-04-03T11:16:20;999.57;;;15.22;32.07
29815;BME280;16708;50.426;7.664;2023-04-03T11:21:14;999.45;;;16.10;30.80
29815;BME280;16708;50.426;7.664;2023-04-03T11:26:10;999.41;;;15.11;30.56
29815;BME280;16708;50.426;7.664;2023-04-03T11:31:04;999.30;;;15.50;30.23
29815;BME280;16708;50.426;7.664;2023-04-03T11:35:58;999.37;;;14.36;30.62
29815;BME280;16708;50.426;7.664;2023-04-03T11:45:45;999.35;;;15.12;29.26
29815;BME280;16708;50.426;7.664;2023-04-03T11:50:40;999.19;;;14.88;29.28
29815;BME280;16708;50.426;7.664;2023-04-03T12:29:51;999.15;;;16.92;23.46
29815;BME280;16708;50.426;7.664;2023-04-03T12:34:44;998.97;;;17.11;25.42
29815;BME280;16708;50.426;7.664;2023-04-03T12:39:39;998.89;;;17.59;24.90
29815;BME280;16708;50.426;7.664;2023-04-03T12:49:27;998.76;;;16.26;24.87
29815;BME280;16708;50.426;7.664;2023-04-03T12:54:21;998.73;;;16.57;24.56
29815;BME280;16708;50.426;7.664;2023-04-03T13:04:09;998.76;;;17.69;24.03
29815;BME280;16708;50.426;7.664;2023-04-03T13:09:02;998.69;;;16.20;27.11
29815;BME280;16708;50.426;7.664;2023-04-03T13:13:56;998.73;;;17.73;25.27
29815;BME280;16708;50.426;7.664;2023-04-03T13:23:42;998.67;;;16.93;26.28
29815;BME280;16708;50.426;7.664;2023-04-03T13:28:36;998.51;;;17.36;24.27
29815;BME280;16708;50.426;7.664;2023-04-03T13:48:10;998.44;;;17.72;25.76
29815;BME280;16708;50.426;7.664;2023-04-03T14:02:54;998.42;;;16.31;24.87
29815;BME280;16708;50.426;7.664;2023-04-03T14:07:47;998.35;;;17.79;22.46
29815;BME280;16708;50.426;7.664;2023-04-03T14:12:42;998.24;;;18.72;22.54
29815;BME280;16708;50.426;7.664;2023-04-03T14:17:37;998.26;;;18.44;22.21
29815;BME280;16708;50.426;7.664;2023-04-03T14:22:31;998.23;;;18.18;21.69
29815;BME280;16708;50.426;7.664;2023-04-03T14:27:26;998.16;;;18.86;20.90
29815;BME280;16708;50.426;7.664;2023-04-03T14:32:20;998.11;;;19.31;21.28
29815;BME280;16708;50.426;7.664;2023-04-03T14:37:15;998.04;;;18.64;22.55
29815;BME280;16708;50.426;7.664;2023-04-03T14:42:09;997.97;;;18.98;21.55
29815;BME280;16708;50.426;7.664;2023-04-03T14:47:03;997.91;;;16.37;25.76
29815;BME280;16708;50.426;7.664;2023-04-03T14:51:57;997.98;;;18.38;22.99
29815;BME280;16708;50.426;7.664;2023-04-03T14:56:51;997.93;;;18.41;21.48
29815;BME280;16708;50.426;7.664;2023-04-03T15:01:45;997.82;;;18.75;23.43
29815;BME280;16708;50.426;7.664;2023-04-03T15:11:30;997.68;;;15.97;24.39
29815;BME280;16708;50.426;7.664;2023-04-03T15:16:23;997.82;;;17.98;22.20
29815;BME280;16708;50.426;7.664;2023-04-03T15:21:15;997.78;;;19.89;20.34
29815;BME280;16708;50.426;7.664;2023-04-03T15:26:10;997.82;;;18.75;21.77
29815;BME280;16708;50.426;7.664;2023-04-03T15:31:04;997.78;;;19.31;20.70
29815;BME280;16708;50.426;7.664;2023-04-03T15:35:58;997.80;;;17.73;22.20
29815;BME280;16708;50.426;7.664;2023-04-03T15:40:52;997.86;;;18.29;22.27
29815;BME280;16708;50.426;7.664;2023-04-03T15:45:45;997.79;;;17.55;23.25
29815;BME280;16708;50.426;7.664;2023-04-03T15:50:39;997.72;;;16.85;23.42
29815;BME280;16708;50.426;7.664;2023-04-03T15:55:31;997.76;;;18.13;21.25
29815;BME280;16708;50.426;7.664;2023-04-03T16:00:25;997.80;;;18.53;20.76
29815;BME280;16708;50.426;7.664;2023-04-03T16:05:17;997.87;;;18.22;21.10
29815;BME280;16708;50.426;7.664;2023-04-03T16:10:09;997.85;;;17.14;22.95
29815;BME280;16708;50.426;7.664;2023-04-03T16:15:02;997.89;;;16.88;23.10
29815;BME280;16708;50.426;7.664;2023-04-03T16:19:56;997.87;;;17.12;23.98
29815;BME280;16708;50.426;7.664;2023-04-03T16:24:49;997.88;;;17.72;22.00
29815;BME280;16708;50.426;7.664;2023-04-03T16:29:43;997.80;;;18.13;22.41
29815;BME280;16708;50.426;7.664;2023-04-03T16:34:36;997.75;;;17.27;23.18
29815;BME280;16708;50.426;7.664;2023-04-03T16:39:31;997.79;;;16.18;24.08
29815;BME280;16708;50.426;7.664;2023-04-03T16:44:24;997.81;;;16.86;24.19
29815;BME280;16708;50.426;7.664;2023-04-03T16:49:18;997.80;;;16.14;23.78
29815;BME280;16708;50.426;7.664;2023-04-03T16:54:12;997.82;;;16.47;23.91
29815;BME280;16708;50.426;7.664;2023-04-03T16:59:05;997.85;;;15.90;24.42
29815;BME280;16708;50.426;7.664;2023-04-03T17:03:59;997.83;;;16.05;24.52
29815;BME280;16708;50.426;7.664;2023-04-03T17:08:52;997.83;;;12.68;27.69
29815;BME280;16708;50.426;7.664;2023-04-03T17:13:46;997.97;;;13.80;26.64
29815;BME280;16708;50.426;7.664;2023-04-03T17:18:40;997.96;;;13.21;27.94
29815;BME280;16708;50.426;7.664;2023-04-03T17:23:33;998.00;;;12.50;28.52
29815;BME280;16708;50.426;7.664;2023-04-03T17:28:27;997.91;;;11.47;29.28
29815;BME280;16708;50.426;7.664;2023-04-03T17:33:20;998.01;;;9.87;31.82
29815;BME280;16708;50.426;7.664;2023-04-03T17:38:12;997.97;;;9.22;33.54
29815;BME280;16708;50.426;7.664;2023-04-03T17:43:06;997.93;;;7.76;37.29
29815;BME280;16708;50.426;7.664;2023-04-03T17:47:59;997.96;;;7.36;37.50
29815;BME280;16708;50.426;7.664;2023-04-03T17:52:53;997.99;;;7.04;38.80
29815;BME280;16708;50.426;7.664;2023-04-03T17:57:47;998.01;;;6.79;40.78
29815;BME280;16708;50.426;7.664;2023-04-03T18:02:41;998.05;;;6.61;42.04
29815;BME280;16708;50.426;7.664;2023-04-03T18:07:34;998.08;;;6.22;41.29
29815;BME280;16708;50.426;7.664;2023-04-03T18:12:28;998.05;;;6.02;41.87
29815;BME280;16708;50.426;7.664;2023-04-03T18:17:19;998.09;;;5.81;43.25
29815;BME280;16708;50.426;7.664;2023-04-03T18:22:10;998.15;;;5.61;44.04
29815;BME280;16708;50.426;7.664;2023-04-03T18:27:03;998.19;;;5.44;44.62
29815;BME280;16708;50.426;7.664;2023-04-03T18:31:57;998.21;;;5.37;45.24
29815;BME280;16708;50.426;7.664;2023-04-03T18:36:51;998.27;;;5.10;45.81
29815;BME280;16708;50.426;7.664;2023-04-03T18:41:45;998.25;;;4.95;46.79
29815;BME280;16708;50.426;7.664;2023-04-03T18:46:39;998.23;;;4.91;47.18
29815;BME280;16708;50.426;7.664;2023-04-03T18:51:33;998.31;;;4.72;48.78
29815;BME280;16708;50.426;7.664;2023-04-03T18:56:27;998.33;;;4.72;48.72
29815;BME280;16708;50.426;7.664;2023-04-03T19:01:21;998.37;;;4.48;50.01
29815;BME280;16708;50.426;7.664;2023-04-03T19:06:14;998.39;;;4.37;49.73
29815;BME280;16708;50.426;7.664;2023-04-03T19:11:06;998.40;;;4.31;51.33
29815;BME280;16708;50.426;7.664;2023-04-03T19:16:00;998.44;;;4.24;51.55
29815;BME280;16708;50.426;7.664;2023-04-03T19:20:54;998.48;;;4.13;52.35
29815;BME280;16708;50.426;7.664;2023-04-03T19:25:47;998.52;;;3.91;53.85
29815;BME280;16708;50.426;7.664;2023-04-03T19:30:41;998.55;;;3.74;56.30
29815;BME280;16708;50.426;7.664;2023-04-03T19:35:35;998.57;;;3.58;58.63
29815;BME280;16708;50.426;7.664;2023-04-03T19:40:29;998.55;;;3.48;59.00
29815;BME280;16708;50.426;7.664;2023-04-03T19:45:23;998.60;;;3.44;59.73
29815;BME280;16708;50.426;7.664;2023-04-03T19:50:17;998.57;;;3.41;59.76
29815;BME280;16708;50.426;7.664;2023-04-03T19:55:12;998.54;;;3.29;61.43
29815;BME280;16708;50.426;7.664;2023-04-03T20:00:05;998.54;;;3.25;62.08
29815;BME280;16708;50.426;7.664;2023-04-03T20:04:58;998.50;;;3.20;62.54
29815;BME280;16708;50.426;7.664;2023-04-03T20:09:52;998.55;;;3.11;62.41
29815;BME280;16708;50.426;7.664;2023-04-03T20:14:46;998.55;;;2.99;63.88
29815;BME280;16708;50.426;7.664;2023-04-03T20:19:40;998.51;;;2.99;66.85
29815;BME280;16708;50.426;7.664;2023-04-03T20:24:34;998.46;;;2.82;67.59
29815;BME280;16708;50.426;7.664;2023-04-03T20:29:28;998.45;;;2.66;70.45
29815;BME280;16708;50.426;7.664;2023-04-03T20:34:22;998.52;;;2.64;72.21
29815;BME280;16708;50.426;7.664;2023-04-03T20:39:16;998.51;;;2.49;70.35
29815;BME280;16708;50.426;7.664;2023-04-03T20:44:09;998.52;;;2.37;77.45
29815;BME280;16708;50.426;7.664;2023-04-03T20:49:03;998.47;;;2.29;78.25
29815;BME280;16708;50.426;7.664;2023-04-03T20:53:58;998.53;;;2.16;79.37
29815;BME280;16708;50.426;7.664;2023-04-03T20:58:51;998.50;;;2.16;79.83
29815;BME280;16708;50.426;7.664;2023-04-03T21:03:45;998.49;;;1.94;83.16
29815;BME280;16708;50.426;7.664;2023-04-03T21:18:25;998.42;;;2.02;83.38
29815;BME280;16708;50.426;7.664;2023-04-03T21:23:16;998.49;;;1.87;81.24
29815;BME280;16708;50.426;7.664;2023-04-03T21:28:10;998.41;;;1.94;78.79
29815;BME280;16708;50.426;7.664;2023-04-03T21:33:04;998.51;;;1.92;80.49
29815;BME280;16708;50.426;7.664;2023-04-03T21:37:58;998.58;;;1.90;76.54
29815;BME280;16708;50.426;7.664;2023-04-03T21:42:51;998.51;;;1.79;81.64
29815;BME280;16708;50.426;7.664;2023-04-03T21:47:45;998.45;;;1.67;81.81
29815;BME280;16708;50.426;7.664;2023-04-03T21:52:39;998.40;;;1.64;84.88
29815;BME280;16708;50.426;7.664;2023-04-03T21:57:34;998.33;;;1.60;82.55
29815;BME280;16708;50.426;7.664;2023-04-03T22:02:28;998.35;;;1.48;82.88
29815;BME280;16708;50.426;7.664;2023-04-03T22:07:22;998.29;;;1.45;83.90
29815;BME280;16708;50.426;7.664;2023-04-03T22:12:15;998.40;;;1.35;83.05
29815;BME280;16708;50.426;7.664;2023-04-03T22:17:09;998.41;;;1.34;87.40
29815;BME280;16708;50.426;7.664;2023-04-03T22:22:03;998.43;;;1.12;86.98
29815;BME280;16708;50.426;7.664;2023-04-03T22:26:57;998.47;;;0.85;95.36
29815;BME280;16708;50.426;7.664;2023-04-03T22:31:51;998.50;;;0.55;100.00
29815;BME280;16708;50.426;7.664;2023-04-03T22:36:45;998.54;;;0.33;100.00
29815;BME280;16708;50.426;7.664;2023-04-03T22:41:39;998.55;;;0.20;100.00
29815;BME280;16708;50.426;7.664;2023-04-03T22:46:32;998.53;;;0.09;100.00
29815;BME280;16708;50.426;7.664;2023-04-03T22:51:24;998.47;;;0.16;100.00
29815;BME280;16708;50.426;7.664;2023-04-03T22:56:19;998.45;;;0.09;100.00
29815;BME280;16708;50.426;7.664;2023-04-03T23:01:10;998.50;;;0.02;100.00
29815;BME280;16708;50.426;7.664;2023-04-03T23:06:06;998.48;;;0.01;100.00
29815;BME280;16708;50.426;7.664;2023-04-03T23:10:57;998.48;;;-0.15;100.00
29815;BME280;16708;50.426;7.664;2023-04-03T23:15:51;998.50;;;-0.32;100.00
29815;BME280;16708;50.426;7.664;2023-04-03T23:20:45;998.56;;;-0.26;100.00
29815;BME280;16708;50.426;7.664;2023-04-03T23:25:39;998.57;;;-0.34;100.00
29815;BME280;16708;50.426;7.664;2023-04-03T23:30:33;998.54;;;-0.37;100.00
29815;BME280;16708;50.426;7.664;2023-04-03T23:35:27;998.54;;;-0.32;100.00
29815;BME280;16708;50.426;7.664;2023-04-03T23:40:20;998.48;;;-0.42;100.00
29815;BME280;16708;50.426;7.664;2023-04-03T23:45:14;998.43;;;-0.70;100.00
29815;BME280;16708;50.426;7.664;2023-04-03T23:50:08;998.41;;;-0.82;100.00
29815;BME280;16708;50.426;7.664;2023-04-03T23:55:02;998.35;;;-0.81;100.00
29815;BME280;16708;50.426;7.664;2023-04-03T23:59:56;998.31;;;-0.72;100.00
